createdAt,value
2023-01-09T00:00:27.253Z,14.90
2023-01-09T00:04:03.358Z,15.70
2023-01-09T00:07:41.157Z,16.70
2023-01-09T00:11:37.258Z,15.70
2023-01-09T00:15:01.199Z,17.00
2023-01-09T00:18:38.592Z,19.00
2023-01-09T00:22:36.640Z,19.50
2023-01-09T00:26:19.477Z,18.30
2023-01-09T00:29:45.933Z,18.30
2023-01-09T00:33:48.184Z,17.80
2023-01-09T00:37:14.336Z,18.00
2023-01-09T00:41:11.400Z,18.50
2023-01-09T00:44:41.331Z,20.30
2023-01-09T00:48:33.049Z,18.70
2023-01-09T00:51:57.015Z,20.50
2023-01-09T00:55:36.383Z,19.70
2023-01-09T00:59:30.989Z,21.70
2023-01-09T01:03:13.024Z,21.10
2023-01-09T01:07:13.722Z,21.10
2023-01-09T01:10:56.074Z,21.30
2023-01-09T01:14:38.828Z,19.60
2023-01-09T01:18:02.001Z,19.80
2023-01-09T01:21:39.783Z,18.70
2023-01-09T01:25:38.294Z,17.20
2023-01-09T01:29:20.773Z,16.90
2023-01-09T01:33:03.047Z,18.70
2023-01-09T01:36:45.559Z,18.00
2023-01-09T01:40:29.165Z,20.10
2023-01-09T01:43:59.875Z,18.00
2023-01-09T01:47:59.128Z,17.40
2023-01-09T01:51:46.255Z,17.20
2023-01-09T01:55:28.202Z,16.20
2023-01-09T01:59:23.627Z,18.20
2023-01-09T02:02:46.802Z,16.50
2023-01-09T02:06:46.014Z,18.70
2023-01-09T02:10:29.464Z,18.10
2023-01-09T02:13:53.166Z,18.70
2023-01-09T02:18:17.518Z,19.70
2023-01-09T02:22:26.206Z,20.10
2023-01-09T02:26:31.588Z,19.80
2023-01-09T02:30:39.623Z,21.10
2023-01-09T02:34:24.661Z,19.50
2023-01-09T02:38:22.901Z,18.40
2023-01-09T02:42:19.583Z,17.50
2023-01-09T02:46:01.969Z,16.70
2023-01-09T02:49:25.444Z,18.40
2023-01-09T02:53:50.522Z,18.80
2023-01-09T02:57:56.049Z,21.40
2023-01-09T03:01:32.623Z,22.10
2023-01-09T03:05:40.682Z,20.00
2023-01-09T03:09:12.165Z,20.90
2023-01-09T03:13:02.063Z,28.70
2023-01-09T03:16:47.966Z,24.90
2023-01-09T03:20:31.520Z,23.50
2023-01-09T03:23:58.011Z,23.90
2023-01-09T03:27:32.527Z,23.50
2023-01-09T03:31:10.605Z,26.60
2023-01-09T03:35:06.785Z,25.60
2023-01-09T03:38:30.399Z,31.50
2023-01-09T03:42:07.804Z,34.50
2023-01-09T03:45:45.978Z,29.30
2023-01-09T03:49:42.253Z,28.70
2023-01-09T03:53:05.822Z,24.20
2023-01-09T03:57:02.341Z,20.90
2023-01-09T04:00:48.223Z,23.90
2023-01-09T04:04:30.027Z,24.30
2023-01-09T04:07:53.330Z,22.50
2023-01-09T04:11:30.901Z,21.10
2023-01-09T04:15:08.883Z,22.50
2023-01-09T04:18:45.965Z,24.20
2023-01-09T04:22:23.981Z,25.20
2023-01-09T04:26:20.426Z,23.90
2023-01-09T04:29:43.801Z,17.50
2023-01-09T04:33:21.071Z,16.80
2023-01-09T04:37:17.876Z,18.10
2023-01-09T04:41:00.007Z,15.40
2023-01-09T04:44:26.437Z,17.10
2023-01-09T04:48:00.716Z,13.90
2023-01-09T04:51:38.767Z,17.90
2023-01-09T04:55:35.047Z,17.80
2023-01-09T04:59:17.070Z,17.20
2023-01-09T05:02:40.941Z,17.30
2023-01-09T05:06:18.259Z,14.70
2023-01-09T05:10:14.747Z,12.60
2023-01-09T05:13:38.420Z,14.00
2023-01-09T05:17:15.973Z,16.50
2023-01-09T05:20:53.960Z,17.40
2023-01-09T05:24:31.525Z,13.70
2023-01-09T05:28:28.330Z,13.40
2023-01-09T05:32:10.817Z,15.00
2023-01-09T05:35:34.830Z,15.20
2023-01-09T05:39:12.558Z,16.60
2023-01-09T05:43:09.103Z,16.70
2023-01-09T05:46:32.558Z,16.40
2023-01-09T05:50:11.271Z,15.30
2023-01-09T05:53:48.212Z,16.90
2023-01-09T05:57:25.847Z,15.60
2023-01-09T06:01:03.221Z,17.80
2023-01-09T06:04:41.413Z,18.40
2023-01-09T06:08:37.254Z,16.00
2023-01-09T06:12:01.020Z,15.20
2023-01-09T06:15:57.253Z,13.60
2023-01-09T06:19:39.838Z,14.40
2023-01-09T06:23:03.558Z,12.50
2023-01-09T06:27:00.377Z,12.20
2023-01-09T06:30:23.711Z,11.40
2023-01-09T06:34:01.765Z,14.30
2023-01-09T06:37:39.006Z,11.70
2023-01-09T06:41:17.897Z,9.80
2023-01-09T06:45:13.889Z,9.00
2023-01-09T06:48:37.879Z,10.80
2023-01-09T06:52:35.454Z,10.60
2023-01-09T06:55:59.539Z,11.80
2023-01-09T06:59:37.138Z,11.50
2023-01-09T07:03:22.162Z,11.50
2023-01-09T07:06:52.252Z,11.70
2023-01-09T07:10:30.135Z,11.90
2023-01-09T07:14:26.362Z,11.60
2023-01-09T07:18:08.859Z,12.30
2023-01-09T07:21:32.964Z,11.40
2023-01-09T07:25:10.377Z,11.10
2023-01-09T07:28:47.685Z,10.80
2023-01-09T07:32:44.568Z,11.80
2023-01-09T07:36:08.784Z,10.40
2023-01-09T07:40:05.621Z,10.70
2023-01-09T07:43:29.178Z,10.30
2023-01-09T07:47:07.327Z,10.40
2023-01-09T07:50:44.379Z,10.00
2023-01-09T07:54:41.338Z,11.70
2023-01-09T07:58:04.786Z,13.90
2023-01-09T08:01:42.797Z,16.30
2023-01-09T08:05:21.494Z,17.40
2023-01-09T08:09:17.687Z,18.40
2023-01-09T08:13:00.259Z,17.40
2023-01-09T08:16:42.770Z,16.80
2023-01-09T08:20:26.634Z,17.10
2023-01-09T08:23:50.659Z,17.60
2023-01-09T08:27:46.880Z,19.70
2023-01-09T08:31:10.559Z,16.70
2023-01-09T08:35:08.201Z,15.40
2023-01-09T08:38:51.100Z,15.80
2023-01-09T08:42:33.411Z,15.20
2023-01-09T08:46:17.788Z,14.80
2023-01-09T08:49:41.742Z,15.00
2023-01-09T08:53:20.291Z,13.20
2023-01-09T08:57:15.833Z,13.60
2023-01-09T09:00:39.401Z,16.10
2023-01-09T09:04:16.787Z,16.50
2023-01-09T09:07:56.138Z,17.60
2023-01-09T09:11:51.065Z,17.50
2023-01-09T09:15:34.062Z,14.80
2023-01-09T09:18:57.785Z,13.80
2023-01-09T09:22:33.747Z,14.70
2023-01-09T09:26:15.614Z,14.70
2023-01-09T09:30:12.195Z,14.60
2023-01-09T09:33:37.499Z,14.30
2023-01-09T09:37:36.289Z,13.80
2023-01-09T09:42:15.956Z,13.50
2023-01-09T09:46:19.795Z,13.20
2023-01-09T09:50:11.015Z,13.80
2023-01-09T09:54:20.086Z,11.40
2023-01-09T09:57:51.864Z,12.40
2023-01-09T10:02:09.844Z,14.10
2023-01-09T10:05:39.150Z,16.30
2023-01-09T10:09:48.709Z,17.40
2023-01-09T10:13:50.285Z,16.50
2023-01-09T10:17:41.106Z,15.10
2023-01-09T10:21:13.476Z,24.80
2023-01-09T10:25:02.908Z,12.10
2023-01-09T10:29:12.955Z,8.60
2023-01-09T10:33:00.720Z,8.20
2023-01-09T10:36:40.675Z,9.60
2023-01-09T10:40:20.514Z,9.10
2023-01-09T10:43:48.816Z,7.90
2023-01-09T10:47:45.674Z,7.70
2023-01-09T10:51:40.258Z,7.30
2023-01-09T10:55:25.532Z,6.70
2023-01-09T10:58:52.866Z,12.90
2023-01-09T11:02:35.062Z,7.30
2023-01-09T11:06:44.534Z,9.50
2023-01-09T11:10:14.645Z,10.70
2023-01-09T11:14:28.091Z,11.20
2023-01-09T11:18:18.893Z,7.60
2023-01-09T11:22:17.525Z,9.40
2023-01-09T11:26:01.731Z,8.80
2023-01-09T11:29:44.611Z,17.40
2023-01-09T11:33:19.200Z,8.40
2023-01-09T11:36:48.657Z,8.20
2023-01-09T11:40:45.227Z,8.20
2023-01-09T11:44:16.682Z,10.00
2023-01-09T11:48:26.462Z,8.80
2023-01-09T11:52:16.278Z,10.60
2023-01-09T11:55:42.667Z,11.90
2023-01-09T11:59:25.002Z,16.60
2023-01-09T12:03:29.648Z,16.20
2023-01-09T12:07:08.562Z,18.70
2023-01-09T12:10:58.495Z,17.40
2023-01-09T12:14:31.881Z,14.50
2023-01-09T12:18:33.132Z,13.30
2023-01-09T12:22:25.089Z,11.70
2023-01-09T12:26:32.229Z,17.60
2023-01-09T12:30:32.255Z,17.70
2023-01-09T12:34:24.353Z,17.90
2023-01-09T12:38:27.447Z,16.10
2023-01-09T12:42:36.961Z,10.00
2023-01-09T12:46:23.664Z,9.70
2023-01-09T12:50:03.991Z,12.30
2023-01-09T12:54:13.501Z,10.90
2023-01-09T12:57:43.913Z,9.70
2023-01-09T13:01:28.969Z,10.20
2023-01-09T13:05:30.432Z,13.30
2023-01-09T13:09:38.764Z,11.60
2023-01-09T13:13:13.875Z,14.00
2023-01-09T13:16:47.741Z,16.10
2023-01-09T13:20:50.383Z,21.30
2023-01-09T13:24:25.092Z,19.60
2023-01-09T13:28:08.378Z,13.90
2023-01-09T13:31:52.940Z,11.10
2023-01-09T13:35:18.195Z,15.20
2023-01-09T13:38:58.016Z,16.50
2023-01-09T13:42:36.273Z,13.30
2023-01-09T13:46:43.674Z,20.70
2023-01-09T13:50:07.206Z,13.80
2023-01-09T13:54:04.727Z,13.70
2023-01-09T13:57:33.257Z,12.20
2023-01-09T14:01:27.822Z,16.20
2023-01-09T14:04:54.851Z,10.70
2023-01-09T14:08:32.769Z,12.90
2023-01-09T14:12:31.118Z,14.40
2023-01-09T14:16:09.755Z,14.30
2023-01-09T14:19:38.338Z,13.80
2023-01-09T14:23:55.289Z,10.10
2023-01-09T14:27:55.047Z,13.50
2023-01-09T14:31:41.173Z,19.20
2023-01-09T14:35:15.410Z,20.10
2023-01-09T14:39:07.275Z,12.00
2023-01-09T14:42:34.374Z,11.30
2023-01-09T14:46:16.823Z,12.50
2023-01-09T14:50:17.014Z,12.90
2023-01-09T14:54:03.552Z,12.90
2023-01-09T14:57:51.558Z,15.20
2023-01-09T15:01:42.565Z,20.70
2023-01-09T15:05:28.648Z,15.50
2023-01-09T15:09:03.394Z,9.80
2023-01-09T15:12:32.378Z,13.10
2023-01-09T15:16:18.641Z,9.10
2023-01-09T15:19:49.871Z,10.30
2023-01-09T15:23:45.205Z,8.70
2023-01-09T15:27:25.664Z,7.80
2023-01-09T15:30:59.274Z,6.40
2023-01-09T15:34:29.174Z,6.10
2023-01-09T15:38:25.861Z,5.40
2023-01-09T15:42:08.362Z,4.40
2023-01-09T15:45:47.612Z,5.40
2023-01-09T15:49:33.576Z,4.20
2023-01-09T15:53:00.595Z,4.30
2023-01-09T15:56:39.540Z,4.20
2023-01-09T16:00:38.630Z,5.30
2023-01-09T16:04:10.275Z,6.70
2023-01-09T16:08:00.161Z,6.00
2023-01-09T16:11:34.406Z,5.40
2023-01-09T16:15:24.174Z,6.60
2023-01-09T16:19:28.993Z,7.20
2023-01-09T16:23:30.368Z,8.70
2023-01-09T16:27:27.348Z,8.00
2023-01-09T16:31:34.721Z,5.70
2023-01-09T16:35:07.545Z,5.50
2023-01-09T16:38:37.499Z,6.70
2023-01-09T16:42:56.119Z,6.10
2023-01-09T16:46:43.296Z,6.00
2023-01-09T16:50:29.225Z,6.80
2023-01-09T16:54:14.021Z,6.80
2023-01-09T16:57:42.526Z,15.00
2023-01-09T17:01:16.157Z,9.40
2023-01-09T17:04:55.349Z,7.80
2023-01-09T17:08:50.884Z,6.20
2023-01-09T17:12:19.976Z,7.20
2023-01-09T17:15:57.005Z,7.30
2023-01-09T17:19:32.798Z,12.10
2023-01-09T17:23:07.671Z,12.70
2023-01-09T17:27:09.616Z,7.70
2023-01-09T17:30:52.737Z,7.50
2023-01-09T17:34:18.162Z,8.20
2023-01-09T17:38:16.095Z,7.40
2023-01-09T17:41:39.373Z,7.60
2023-01-09T17:45:19.103Z,14.20
2023-01-09T17:48:56.550Z,12.40
2023-01-09T17:52:35.001Z,9.30
2023-01-09T17:56:34.780Z,13.10
2023-01-09T18:00:29.135Z,11.80
2023-01-09T18:04:11.928Z,10.20
2023-01-09T18:07:59.631Z,10.50
2023-01-09T18:11:47.156Z,9.30
2023-01-09T18:15:29.522Z,10.80
2023-01-09T18:18:57.657Z,9.80
2023-01-09T18:22:35.103Z,10.70
2023-01-09T18:26:11.035Z,10.90
2023-01-09T18:29:48.660Z,10.50
2023-01-09T18:33:26.219Z,10.40
2023-01-09T18:37:02.506Z,10.90
2023-01-09T18:40:41.666Z,13.20
2023-01-09T18:44:21.718Z,45.10
2023-01-09T18:48:15.774Z,16.40
2023-01-09T18:52:01.628Z,20.70
2023-01-09T18:55:26.588Z,26.80
2023-01-09T18:59:21.907Z,15.30
2023-01-09T19:03:04.035Z,13.40
2023-01-09T19:06:47.189Z,12.30
2023-01-09T19:10:31.461Z,12.60
2023-01-09T19:13:58.658Z,12.70
2023-01-09T19:17:36.557Z,20.00
2023-01-09T19:21:33.278Z,33.00
2023-01-09T19:24:59.185Z,16.60
2023-01-09T19:28:56.744Z,14.80
2023-01-09T19:32:22.196Z,14.40
2023-01-09T19:35:58.988Z,13.90
2023-01-09T19:39:37.682Z,12.60
2023-01-09T19:43:34.605Z,10.50
2023-01-09T19:47:01.562Z,10.80
2023-01-09T19:50:38.118Z,11.00
2023-01-09T19:54:16.658Z,10.70
2023-01-09T19:58:10.614Z,9.30
2023-01-09T20:01:41.622Z,10.00
2023-01-09T20:05:11.662Z,9.80
2023-01-09T20:08:53.807Z,8.20
2023-01-09T20:12:45.981Z,7.60
2023-01-09T20:16:22.057Z,7.00
2023-01-09T20:19:47.199Z,8.70
2023-01-09T20:23:33.645Z,9.50
2023-01-09T20:27:24.169Z,10.20
2023-01-09T20:30:52.862Z,9.20
2023-01-09T20:34:25.650Z,8.80
2023-01-09T20:38:04.217Z,10.10
2023-01-09T20:41:45.215Z,10.10
2023-01-09T20:45:18.616Z,10.10
2023-01-09T20:48:58.518Z,10.60
2023-01-09T20:52:33.906Z,10.40
2023-01-09T20:56:12.903Z,10.90
2023-01-09T21:00:09.763Z,10.00
2023-01-09T21:03:54.506Z,8.40
2023-01-09T21:07:25.627Z,7.90
2023-01-09T21:10:59.795Z,7.70
2023-01-09T21:14:33.377Z,9.20
2023-01-09T21:18:31.708Z,11.80
2023-01-09T21:21:56.523Z,8.60
2023-01-09T21:25:35.131Z,11.20
2023-01-09T21:29:14.904Z,11.70
2023-01-09T21:32:50.091Z,12.40
2023-01-09T21:36:28.232Z,12.00
2023-01-09T21:40:23.095Z,11.00
2023-01-09T21:44:06.200Z,11.80
2023-01-09T21:47:33.227Z,10.50
2023-01-09T21:51:11.003Z,10.80
2023-01-09T21:55:06.908Z,11.10
2023-01-09T21:58:32.410Z,12.60
2023-01-09T22:02:15.799Z,12.30
2023-01-09T22:05:47.763Z,6.90
2023-01-09T22:09:47.696Z,9.60
2023-01-09T22:13:34.105Z,14.10
2023-01-09T22:17:03.177Z,14.90
2023-01-09T22:20:57.706Z,17.10
2023-01-09T22:24:40.804Z,13.70
2023-01-09T22:28:28.815Z,12.10
2023-01-09T22:32:13.254Z,20.00
2023-01-09T22:36:04.451Z,21.70
2023-01-09T22:39:47.239Z,14.20
2023-01-09T22:43:31.366Z,14.70
2023-01-09T22:46:56.611Z,14.90
2023-01-09T22:50:51.385Z,11.50
2023-01-09T22:54:15.629Z,14.90
2023-01-09T22:57:53.624Z,17.40
2023-01-09T23:01:31.369Z,14.90
2023-01-09T23:05:28.071Z,14.80
2023-01-09T23:09:10.997Z,16.40
2023-01-09T23:12:55.608Z,13.40
2023-01-09T23:16:41.893Z,11.10
2023-01-09T23:20:09.077Z,10.60
2023-01-09T23:23:43.688Z,11.60
2023-01-09T23:27:26.165Z,14.60
2023-01-09T23:31:20.891Z,15.00
2023-01-09T23:34:47.010Z,14.50
2023-01-09T23:38:41.219Z,13.70
2023-01-09T23:42:25.674Z,10.90
2023-01-09T23:46:14.116Z,12.70
2023-01-09T23:49:40.739Z,9.40
2023-01-09T23:53:36.873Z,10.30
2023-01-09T23:57:19.571Z,9.70
